sensor_id;sensor_type;location;lat;lon;timestamp;pressure;altitude;pressure_sealevel;temperature;humidity
12759;BME280;20944;47.048;15.390;2022-08-01T00:00:09;97447.16;;;21.56;65.11
12759;BME280;20944;47.048;15.390;2022-08-01T00:02:39;97457.44;;;21.61;65.27
12759;BME280;20944;47.048;15.390;2022-08-01T00:05:08;97450.88;;;21.53;65.58
12759;BME280;20944;47.048;15.390;2022-08-01T00:07:37;97454.16;;;21.57;65.62
12759;BME280;20944;47.048;15.390;2022-08-01T00:10:08;97433.06;;;21.54;67.12
12759;BME280;20944;47.048;15.390;2022-08-01T00:12:37;97451.38;;;21.59;68.00
12759;BME280;20944;47.048;15.390;2022-08-01T00:15:09;97448.94;;;21.55;67.94
12759;BME280;20944;47.048;15.390;2022-08-01T00:17:38;97469.28;;;21.45;69.61
12759;BME280;20944;47.048;15.390;2022-08-01T00:20:09;97441.63;;;21.46;69.88
12759;BME280;20944;47.048;15.390;2022-08-01T00:22:38;97453.00;;;21.37;70.04
12759;BME280;20944;47.048;15.390;2022-08-01T00:25:07;97400.19;;;21.06;69.83
12759;BME280;20944;47.048;15.390;2022-08-01T00:27:36;97442.25;;;21.26;68.86
12759;BME280;20944;47.048;15.390;2022-08-01T00:30:05;97426.69;;;21.20;67.63
12759;BME280;20944;47.048;15.390;2022-08-01T00:32:39;97433.00;;;21.19;67.69
12759;BME280;20944;47.048;15.390;2022-08-01T00:35:08;97428.00;;;21.14;67.50
12759;BME280;20944;47.048;15.390;2022-08-01T00:37:36;97424.81;;;21.09;67.63
12759;BME280;20944;47.048;15.390;2022-08-01T00:40:08;97435.75;;;21.17;67.72
12759;BME280;20944;47.048;15.390;2022-08-01T00:42:37;97434.19;;;21.15;67.72
12759;BME280;20944;47.048;15.390;2022-08-01T00:45:09;97396.25;;;20.87;67.81
12759;BME280;20944;47.048;15.390;2022-08-01T00:47:39;97442.44;;;20.99;68.94
12759;BME280;20944;47.048;15.390;2022-08-01T00:50:09;97439.75;;;20.99;68.84
12759;BME280;20944;47.048;15.390;2022-08-01T00:52:39;97437.13;;;20.86;69.04
12759;BME280;20944;47.048;15.390;2022-08-01T00:55:08;97430.16;;;20.72;69.53
12759;BME280;20944;47.048;15.390;2022-08-01T00:57:41;97438.94;;;20.62;69.61
12759;BME280;20944;47.048;15.390;2022-08-01T01:00:30;97446.72;;;20.52;69.20
12759;BME280;20944;47.048;15.390;2022-08-01T01:03:21;97439.88;;;20.48;69.29
12759;BME280;20944;47.048;15.390;2022-08-01T01:06:17;97442.88;;;20.43;68.31
12759;BME280;20944;47.048;15.390;2022-08-01T01:08:55;97449.69;;;20.47;70.31
12759;BME280;20944;47.048;15.390;2022-08-01T01:11:33;97430.41;;;20.44;71.15
12759;BME280;20944;47.048;15.390;2022-08-01T01:14:06;97429.47;;;20.45;71.65
12759;BME280;20944;47.048;15.390;2022-08-01T01:16:40;97439.25;;;20.44;71.48
12759;BME280;20944;47.048;15.390;2022-08-01T01:19:15;97437.53;;;20.43;71.40
12759;BME280;20944;47.048;15.390;2022-08-01T01:21:59;97436.91;;;20.53;70.91
12759;BME280;20944;47.048;15.390;2022-08-01T01:24:36;97439.69;;;20.51;69.62
12759;BME280;20944;47.048;15.390;2022-08-01T01:27:10;97436.16;;;20.38;70.26
12759;BME280;20944;47.048;15.390;2022-08-01T01:29:51;97428.91;;;20.40;71.84
12759;BME280;20944;47.048;15.390;2022-08-01T01:32:30;97384.25;;;20.07;71.73
12759;BME280;20944;47.048;15.390;2022-08-01T01:35:02;97428.91;;;20.40;72.70
12759;BME280;20944;47.048;15.390;2022-08-01T01:37:34;97429.75;;;20.40;71.88
12759;BME280;20944;47.048;15.390;2022-08-01T01:40:07;97423.41;;;20.30;72.04
12759;BME280;20944;47.048;15.390;2022-08-01T01:42:38;97416.16;;;20.19;72.70
12759;BME280;20944;47.048;15.390;2022-08-01T01:45:09;97410.00;;;20.19;72.59
12759;BME280;20944;47.048;15.390;2022-08-01T01:47:38;97417.75;;;20.22;73.15
12759;BME280;20944;47.048;15.390;2022-08-01T01:50:10;97434.47;;;20.24;73.18
12759;BME280;20944;47.048;15.390;2022-08-01T01:52:40;97429.16;;;20.24;72.62
12759;BME280;20944;47.048;15.390;2022-08-01T01:55:10;97421.78;;;20.15;73.03
12759;BME280;20944;47.048;15.390;2022-08-01T01:57:41;97380.63;;;19.82;73.31
12759;BME280;20944;47.048;15.390;2022-08-01T02:00:14;97428.94;;;20.14;72.83
12759;BME280;20944;47.048;15.390;2022-08-01T02:02:44;97433.19;;;20.17;72.31
12759;BME280;20944;47.048;15.390;2022-08-01T02:05:13;97422.03;;;20.12;72.23
12759;BME280;20944;47.048;15.390;2022-08-01T02:07:43;97423.38;;;20.05;72.32
12759;BME280;20944;47.048;15.390;2022-08-01T02:10:15;97422.22;;;20.09;73.90
12759;BME280;20944;47.048;15.390;2022-08-01T02:12:54;97408.31;;;20.05;73.21
12759;BME280;20944;47.048;15.390;2022-08-01T02:15:26;97399.44;;;19.92;72.91
12759;BME280;20944;47.048;15.390;2022-08-01T02:17:56;97412.97;;;20.02;72.69
12759;BME280;20944;47.048;15.390;2022-08-01T02:20:27;97413.28;;;19.97;72.76
12759;BME280;20944;47.048;15.390;2022-08-01T02:23:01;97413.50;;;19.94;73.16
12759;BME280;20944;47.048;15.390;2022-08-01T02:25:38;97414.47;;;19.80;73.43
12759;BME280;20944;47.048;15.390;2022-08-01T02:28:30;97397.84;;;19.89;72.69
12759;BME280;20944;47.048;15.390;2022-08-01T02:31:08;97418.28;;;20.02;73.50
12759;BME280;20944;47.048;15.390;2022-08-01T02:33:40;97410.63;;;19.97;73.44
12759;BME280;20944;47.048;15.390;2022-08-01T02:36:11;97409.56;;;19.87;73.49
12759;BME280;20944;47.048;15.390;2022-08-01T02:39:01;97422.22;;;19.83;73.08
12759;BME280;20944;47.048;15.390;2022-08-01T02:41:30;97418.47;;;19.73;72.89
12759;BME280;20944;47.048;15.390;2022-08-01T02:44:04;97408.25;;;19.67;74.02
12759;BME280;20944;47.048;15.390;2022-08-01T02:46:37;97425.09;;;19.80;75.38
12759;BME280;20944;47.048;15.390;2022-08-01T02:49:09;97404.03;;;19.90;74.38
12759;BME280;20944;47.048;15.390;2022-08-01T02:51:39;97420.28;;;19.85;73.72
12759;BME280;20944;47.048;15.390;2022-08-01T02:54:10;97409.22;;;19.79;74.24
12759;BME280;20944;47.048;15.390;2022-08-01T02:56:40;97405.94;;;19.75;74.61
12759;BME280;20944;47.048;15.390;2022-08-01T02:59:12;97412.53;;;19.70;73.79
12759;BME280;20944;47.048;15.390;2022-08-01T03:01:47;97408.34;;;19.65;73.78
12759;BME280;20944;47.048;15.390;2022-08-01T03:04:22;97413.16;;;19.73;73.01
12759;BME280;20944;47.048;15.390;2022-08-01T03:06:52;97400.19;;;19.81;72.47
12759;BME280;20944;47.048;15.390;2022-08-01T03:09:21;97404.25;;;19.87;72.76
12759;BME280;20944;47.048;15.390;2022-08-01T03:11:51;97409.75;;;19.84;72.31
12759;BME280;20944;47.048;15.390;2022-08-01T03:14:22;97407.84;;;19.73;72.00
12759;BME280;20944;47.048;15.390;2022-08-01T03:16:54;97426.69;;;19.83;73.40
12759;BME280;20944;47.048;15.390;2022-08-01T03:19:24;97436.34;;;19.84;73.82
12759;BME280;20944;47.048;15.390;2022-08-01T03:21:55;97432.41;;;19.77;74.14
12759;BME280;20944;47.048;15.390;2022-08-01T03:24:26;97343.84;;;19.24;74.69
12759;BME280;20944;47.048;15.390;2022-08-01T03:26:56;97426.25;;;19.89;73.90
12759;BME280;20944;47.048;15.390;2022-08-01T03:29:27;97424.25;;;19.92;73.29
12759;BME280;20944;47.048;15.390;2022-08-01T03:31:58;97425.84;;;19.82;73.54
12759;BME280;20944;47.048;15.390;2022-08-01T03:34:28;97424.13;;;19.81;73.43
12759;BME280;20944;47.048;15.390;2022-08-01T03:37:01;97413.25;;;19.72;74.48
12759;BME280;20944;47.048;15.390;2022-08-01T03:39:36;97414.09;;;19.72;75.14
12759;BME280;20944;47.048;15.390;2022-08-01T03:42:11;97426.78;;;19.81;75.27
12759;BME280;20944;47.048;15.390;2022-08-01T03:44:41;97427.09;;;19.77;74.55
12759;BME280;20944;47.048;15.390;2022-08-01T03:47:11;97421.03;;;19.75;74.41
12759;BME280;20944;47.048;15.390;2022-08-01T03:49:43;97422.09;;;19.72;74.61
12759;BME280;20944;47.048;15.390;2022-08-01T03:52:12;97423.47;;;19.65;75.29
12759;BME280;20944;47.048;15.390;2022-08-01T03:54:46;97398.09;;;19.47;75.44
12759;BME280;20944;47.048;15.390;2022-08-01T03:57:16;97429.50;;;19.67;74.94
12759;BME280;20944;47.048;15.390;2022-08-01T04:00:04;97438.03;;;19.72;74.97
12759;BME280;20944;47.048;15.390;2022-08-01T04:02:37;97423.34;;;19.66;74.66
12759;BME280;20944;47.048;15.390;2022-08-01T04:05:07;97415.72;;;19.75;75.58
12759;BME280;20944;47.048;15.390;2022-08-01T04:07:35;97405.69;;;19.65;76.00
12759;BME280;20944;47.048;15.390;2022-08-01T04:10:06;97428.91;;;19.76;76.48
12759;BME280;20944;47.048;15.390;2022-08-01T04:12:34;97426.66;;;19.70;77.02
12759;BME280;20944;47.048;15.390;2022-08-01T04:15:04;97392.78;;;19.47;78.00
12759;BME280;20944;47.048;15.390;2022-08-01T04:17:32;97428.25;;;19.73;78.04
12759;BME280;20944;47.048;15.390;2022-08-01T04:20:02;97429.75;;;19.77;78.41
12759;BME280;20944;47.048;15.390;2022-08-01T04:22:30;97441.34;;;19.76;77.56
12759;BME280;20944;47.048;15.390;2022-08-01T04:25:07;97429.09;;;19.73;77.59
12759;BME280;20944;47.048;15.390;2022-08-01T04:27:38;97441.06;;;19.80;77.50
12759;BME280;20944;47.048;15.390;2022-08-01T04:30:19;97429.34;;;19.83;77.63
12759;BME280;20944;47.048;15.390;2022-08-01T04:32:49;97422.94;;;19.73;78.17
12759;BME280;20944;47.048;15.390;2022-08-01T04:35:21;97370.13;;;19.41;77.41
12759;BME280;20944;47.048;15.390;2022-08-01T04:38:10;97433.06;;;19.80;76.70
12759;BME280;20944;47.048;15.390;2022-08-01T04:40:41;97435.72;;;19.80;75.60
12759;BME280;20944;47.048;15.390;2022-08-01T04:43:10;97428.91;;;19.76;75.90
12759;BME280;20944;47.048;15.390;2022-08-01T04:45:42;97414.03;;;19.47;76.68
12759;BME280;20944;47.048;15.390;2022-08-01T04:48:13;97449.88;;;19.54;77.44
12759;BME280;20944;47.048;15.390;2022-08-01T04:50:45;97449.97;;;19.52;78.52
12759;BME280;20944;47.048;15.390;2022-08-01T04:53:14;97446.09;;;19.58;78.39
12759;BME280;20944;47.048;15.390;2022-08-01T04:55:44;97451.56;;;19.69;78.31
12759;BME280;20944;47.048;15.390;2022-08-01T04:58:14;97421.09;;;19.60;78.24
12759;BME280;20944;47.048;15.390;2022-08-01T05:00:44;97448.09;;;19.94;77.27
12759;BME280;20944;47.048;15.390;2022-08-01T05:03:13;97444.66;;;20.05;76.94
12759;BME280;20944;47.048;15.390;2022-08-01T05:05:41;97449.13;;;20.17;76.70
12759;BME280;20944;47.048;15.390;2022-08-01T05:08:11;97405.41;;;20.08;76.61
12759;BME280;20944;47.048;15.390;2022-08-01T05:10:39;97440.00;;;20.46;75.89
12759;BME280;20944;47.048;15.390;2022-08-01T05:13:08;97436.16;;;20.63;75.40
12759;BME280;20944;47.048;15.390;2022-08-01T05:15:36;97435.00;;;20.91;74.05
12759;BME280;20944;47.048;15.390;2022-08-01T05:18:05;97442.06;;;21.16;72.32
12759;BME280;20944;47.048;15.390;2022-08-01T05:20:34;97397.31;;;21.09;70.37
12759;BME280;20944;47.048;15.390;2022-08-01T05:23:02;97433.94;;;21.66;69.20
12759;BME280;20944;47.048;15.390;2022-08-01T05:25:32;97434.44;;;21.71;69.03
12759;BME280;20944;47.048;15.390;2022-08-01T05:28:20;97327.53;;;21.04;68.03
12759;BME280;20944;47.048;15.390;2022-08-01T05:30:49;97434.41;;;21.60;68.42
12759;BME280;20944;47.048;15.390;2022-08-01T05:33:17;97415.44;;;21.40;68.78
12759;BME280;20944;47.048;15.390;2022-08-01T05:35:47;97435.44;;;21.46;69.17
12759;BME280;20944;47.048;15.390;2022-08-01T05:38:15;97438.34;;;21.43;69.80
12759;BME280;20944;47.048;15.390;2022-08-01T05:40:45;97445.34;;;21.33;71.23
12759;BME280;20944;47.048;15.390;2022-08-01T05:43:14;97441.44;;;21.13;72.14
12759;BME280;20944;47.048;15.390;2022-08-01T05:45:42;97440.53;;;21.01;71.69
12759;BME280;20944;47.048;15.390;2022-08-01T05:48:11;97375.34;;;20.44;72.87
12759;BME280;20944;47.048;15.390;2022-08-01T05:50:39;97436.78;;;20.67;74.05
12759;BME280;20944;47.048;15.390;2022-08-01T05:53:07;97436.69;;;20.68;73.78
12759;BME280;20944;47.048;15.390;2022-08-01T05:55:36;97444.69;;;20.56;74.22
12759;BME280;20944;47.048;15.390;2022-08-01T05:58:05;97451.91;;;20.54;74.61
12759;BME280;20944;47.048;15.390;2022-08-01T06:00:38;97441.50;;;20.51;74.51
12759;BME280;20944;47.048;15.390;2022-08-01T06:03:06;97451.72;;;20.57;73.33
12759;BME280;20944;47.048;15.390;2022-08-01T06:05:35;97449.06;;;20.57;74.04
12759;BME280;20944;47.048;15.390;2022-08-01T06:08:03;97451.91;;;20.66;73.32
12759;BME280;20944;47.048;15.390;2022-08-01T06:10:31;97405.63;;;20.31;74.83
12759;BME280;20944;47.048;15.390;2022-08-01T06:13:00;97467.78;;;20.55;77.59
12759;BME280;20944;47.048;15.390;2022-08-01T06:15:31;97464.69;;;20.61;79.25
12759;BME280;20944;47.048;15.390;2022-08-01T06:18:00;97441.69;;;20.47;80.04
12759;BME280;20944;47.048;15.390;2022-08-01T06:20:28;97471.09;;;20.59;79.03
12759;BME280;20944;47.048;15.390;2022-08-01T06:22:57;97467.56;;;20.58;78.59
12759;BME280;20944;47.048;15.390;2022-08-01T06:25:28;97457.13;;;20.55;77.97
12759;BME280;20944;47.048;15.390;2022-08-01T06:27:56;97466.06;;;20.67;78.16
12759;BME280;20944;47.048;15.390;2022-08-01T06:30:25;97480.84;;;20.84;75.67
12759;BME280;20944;47.048;15.390;2022-08-01T06:32:55;97341.78;;;20.18;74.33
12759;BME280;20944;47.048;15.390;2022-08-01T06:35:25;97469.72;;;21.02;73.14
12759;BME280;20944;47.048;15.390;2022-08-01T06:37:55;97426.19;;;20.78;73.46
12759;BME280;20944;47.048;15.390;2022-08-01T06:40:23;97459.25;;;21.12;74.62
12759;BME280;20944;47.048;15.390;2022-08-01T06:42:52;97454.81;;;21.24;72.08
12759;BME280;20944;47.048;15.390;2022-08-01T06:45:20;97460.25;;;21.22;71.99
12759;BME280;20944;47.048;15.390;2022-08-01T06:47:51;97370.28;;;20.78;74.00
12759;BME280;20944;47.048;15.390;2022-08-01T06:50:21;97444.91;;;21.26;76.79
12759;BME280;20944;47.048;15.390;2022-08-01T06:52:49;97464.38;;;21.39;76.21
12759;BME280;20944;47.048;15.390;2022-08-01T06:55:17;97462.97;;;21.46;75.54
12759;BME280;20944;47.048;15.390;2022-08-01T06:57:47;97459.84;;;21.52;75.95
12759;BME280;20944;47.048;15.390;2022-08-01T07:00:17;97455.91;;;21.69;73.09
12759;BME280;20944;47.048;15.390;2022-08-01T07:02:49;97461.47;;;21.66;70.71
12759;BME280;20944;47.048;15.390;2022-08-01T07:05:18;97453.41;;;21.55;71.61
12759;BME280;20944;47.048;15.390;2022-08-01T07:07:48;97447.63;;;21.61;69.46
12759;BME280;20944;47.048;15.390;2022-08-01T07:10:16;97445.06;;;21.60;70.98
12759;BME280;20944;47.048;15.390;2022-08-01T07:12:45;97444.81;;;21.51;74.41
12759;BME280;20944;47.048;15.390;2022-08-01T07:15:13;97445.59;;;21.41;76.07
12759;BME280;20944;47.048;15.390;2022-08-01T07:17:42;97447.22;;;21.54;72.98
12759;BME280;20944;47.048;15.390;2022-08-01T07:20:11;97442.19;;;21.63;70.62
12759;BME280;20944;47.048;15.390;2022-08-01T07:22:42;97442.84;;;21.77;69.66
12759;BME280;20944;47.048;15.390;2022-08-01T07:25:15;97438.59;;;21.86;69.34
12759;BME280;20944;47.048;15.390;2022-08-01T07:27:43;97383.75;;;21.60;70.22
12759;BME280;20944;47.048;15.390;2022-08-01T07:30:12;97449.69;;;22.04;69.66
12759;BME280;20944;47.048;15.390;2022-08-01T07:32:40;97438.25;;;22.26;70.32
12759;BME280;20944;47.048;15.390;2022-08-01T07:35:09;97434.09;;;22.67;69.69
12759;BME280;20944;47.048;15.390;2022-08-01T07:37:37;97437.63;;;23.01;66.83
12759;BME280;20944;47.048;15.390;2022-08-01T07:40:17;97441.19;;;23.33;64.29
12759;BME280;20944;47.048;15.390;2022-08-01T07:42:46;97441.50;;;23.51;63.46
12759;BME280;20944;47.048;15.390;2022-08-01T07:45:15;97446.38;;;23.78;63.82
12759;BME280;20944;47.048;15.390;2022-08-01T07:47:43;97437.75;;;24.16;61.10
12759;BME280;20944;47.048;15.390;2022-08-01T07:50:12;97448.09;;;24.42;59.82
12759;BME280;20944;47.048;15.390;2022-08-01T07:52:40;97429.19;;;24.43;57.38
12759;BME280;20944;47.048;15.390;2022-08-01T07:55:09;97399.84;;;24.42;57.80
12759;BME280;20944;47.048;15.390;2022-08-01T07:57:43;97441.66;;;24.94;56.10
12759;BME280;20944;47.048;15.390;2022-08-01T08:00:12;97425.75;;;25.02;56.25
12759;BME280;20944;47.048;15.390;2022-08-01T08:02:41;97439.78;;;25.16;57.12
12759;BME280;20944;47.048;15.390;2022-08-01T08:05:11;97441.63;;;25.15;56.52
12759;BME280;20944;47.048;15.390;2022-08-01T08:07:39;97453.75;;;25.10;55.82
12759;BME280;20944;47.048;15.390;2022-08-01T08:10:08;97420.66;;;24.99;55.27
12759;BME280;20944;47.048;15.390;2022-08-01T08:12:36;97443.16;;;25.18;55.73
12759;BME280;20944;47.048;15.390;2022-08-01T08:15:07;97428.59;;;25.20;56.14
12759;BME280;20944;47.048;15.390;2022-08-01T08:17:35;97443.78;;;25.41;56.77
12759;BME280;20944;47.048;15.390;2022-08-01T08:20:05;97446.72;;;25.38;56.81
12759;BME280;20944;47.048;15.390;2022-08-01T08:22:35;97438.81;;;25.36;58.09
12759;BME280;20944;47.048;15.390;2022-08-01T08:25:04;97437.97;;;25.45;57.47
12759;BME280;20944;47.048;15.390;2022-08-01T08:27:33;97456.59;;;25.37;57.27
12759;BME280;20944;47.048;15.390;2022-08-01T08:30:06;97447.16;;;25.43;57.36
12759;BME280;20944;47.048;15.390;2022-08-01T08:32:35;97446.44;;;25.41;55.42
12759;BME280;20944;47.048;15.390;2022-08-01T08:35:05;97408.03;;;25.21;56.21
12759;BME280;20944;47.048;15.390;2022-08-01T08:37:37;97446.03;;;25.36;55.28
12759;BME280;20944;47.048;15.390;2022-08-01T08:40:15;97446.72;;;25.38;55.15
12759;BME280;20944;47.048;15.390;2022-08-01T08:42:44;97443.34;;;25.55;54.71
12759;BME280;20944;47.048;15.390;2022-08-01T08:45:15;97437.53;;;25.69;54.33
12759;BME280;20944;47.048;15.390;2022-08-01T08:47:43;97438.69;;;25.76;54.52
12759;BME280;20944;47.048;15.390;2022-08-01T08:50:13;97432.19;;;25.89;53.34
12759;BME280;20944;47.048;15.390;2022-08-01T08:52:43;97439.53;;;26.16;53.61
12759;BME280;20944;47.048;15.390;2022-08-01T08:55:12;97419.69;;;26.26;52.73
12759;BME280;20944;47.048;15.390;2022-08-01T08:57:43;97419.53;;;26.47;51.05
12759;BME280;20944;47.048;15.390;2022-08-01T09:00:14;97435.00;;;26.63;51.54
12759;BME280;20944;47.048;15.390;2022-08-01T09:02:44;97399.91;;;26.65;49.14
12759;BME280;20944;47.048;15.390;2022-08-01T09:05:13;97394.53;;;26.65;49.23
12759;BME280;20944;47.048;15.390;2022-08-01T09:07:45;97420.72;;;26.90;49.51
12759;BME280;20944;47.048;15.390;2022-08-01T09:10:13;97391.25;;;26.98;50.93
12759;BME280;20944;47.048;15.390;2022-08-01T09:13:03;97419.59;;;27.38;50.00
12759;BME280;20944;47.048;15.390;2022-08-01T09:15:40;97423.22;;;27.47;49.18
12759;BME280;20944;47.048;15.390;2022-08-01T09:18:23;97421.28;;;27.39;48.96
12759;BME280;20944;47.048;15.390;2022-08-01T09:21:11;97428.38;;;27.40;48.00
12759;BME280;20944;47.048;15.390;2022-08-01T09:23:43;97419.59;;;27.38;48.46
12759;BME280;20944;47.048;15.390;2022-08-01T09:26:21;97419.84;;;27.45;48.45
12759;BME280;20944;47.048;15.390;2022-08-01T09:28:57;97423.16;;;27.38;49.68
12759;BME280;20944;47.048;15.390;2022-08-01T09:31:29;97410.22;;;27.24;50.09
12759;BME280;20944;47.048;15.390;2022-08-01T09:34:05;97418.44;;;27.40;50.21
12759;BME280;20944;47.048;15.390;2022-08-01T09:36:46;97423.72;;;27.60;48.90
12759;BME280;20944;47.048;15.390;2022-08-01T09:39:24;97419.66;;;27.74;46.80
12759;BME280;20944;47.048;15.390;2022-08-01T09:41:53;97417.97;;;27.73;47.41
12759;BME280;20944;47.048;15.390;2022-08-01T09:44:37;97416.78;;;27.75;47.22
12759;BME280;20944;47.048;15.390;2022-08-01T09:47:11;97400.84;;;27.82;46.56
12759;BME280;20944;47.048;15.390;2022-08-01T09:49:41;97406.09;;;28.09;43.99
12759;BME280;20944;47.048;15.390;2022-08-01T09:52:19;97411.13;;;28.30;43.44
12759;BME280;20944;47.048;15.390;2022-08-01T09:54:53;97403.56;;;28.60;43.98
12759;BME280;20944;47.048;15.390;2022-08-01T09:57:22;97416.19;;;28.85;43.65
12759;BME280;20944;47.048;15.390;2022-08-01T09:59:53;97297.81;;;28.40;44.62
12759;BME280;20944;47.048;15.390;2022-08-01T10:02:31;97400.13;;;29.26;43.45
12759;BME280;20944;47.048;15.390;2022-08-01T10:05:00;97392.38;;;29.39;41.27
12759;BME280;20944;47.048;15.390;2022-08-01T10:07:35;97389.19;;;29.36;41.97
12759;BME280;20944;47.048;15.390;2022-08-01T10:10:12;97352.19;;;29.20;40.45
12759;BME280;20944;47.048;15.390;2022-08-01T10:12:41;97393.41;;;29.38;42.05
12759;BME280;20944;47.048;15.390;2022-08-01T10:15:14;97368.56;;;29.26;41.15
12759;BME280;20944;47.048;15.390;2022-08-01T10:17:50;97392.75;;;29.36;41.84
12759;BME280;20944;47.048;15.390;2022-08-01T10:20:26;97390.16;;;29.18;40.58
12759;BME280;20944;47.048;15.390;2022-08-01T10:23:02;97390.94;;;29.02;39.94
12759;BME280;20944;47.048;15.390;2022-08-01T10:25:36;97375.66;;;28.77;40.45
12759;BME280;20944;47.048;15.390;2022-08-01T10:28:13;97399.91;;;28.69;41.06
12759;BME280;20944;47.048;15.390;2022-08-01T10:30:50;97395.47;;;28.60;41.38
12759;BME280;20944;47.048;15.390;2022-08-01T10:33:22;97401.50;;;28.54;41.04
12759;BME280;20944;47.048;15.390;2022-08-01T10:36:11;97391.34;;;28.73;40.55
12759;BME280;20944;47.048;15.390;2022-08-01T10:38:42;97392.22;;;28.90;39.96
12759;BME280;20944;47.048;15.390;2022-08-01T10:41:12;97390.47;;;29.15;40.68
12759;BME280;20944;47.048;15.390;2022-08-01T10:43:42;97366.72;;;29.35;41.42
12759;BME280;20944;47.048;15.390;2022-08-01T10:46:13;97379.97;;;29.63;42.22
12759;BME280;20944;47.048;15.390;2022-08-01T10:48:49;97372.84;;;29.78;42.36
12759;BME280;20944;47.048;15.390;2022-08-01T10:51:20;97353.09;;;29.77;39.95
12759;BME280;20944;47.048;15.390;2022-08-01T10:54:11;97366.09;;;29.98;41.07
12759;BME280;20944;47.048;15.390;2022-08-01T10:56:43;97363.69;;;30.03;39.53
12759;BME280;20944;47.048;15.390;2022-08-01T10:59:20;97364.22;;;30.15;39.79
12759;BME280;20944;47.048;15.390;2022-08-01T11:02:09;97355.59;;;30.20;41.31
12759;BME280;20944;47.048;15.390;2022-08-01T11:04:54;97349.00;;;30.22;37.72
12759;BME280;20944;47.048;15.390;2022-08-01T11:07:34;97353.53;;;30.38;37.63
12759;BME280;20944;47.048;15.390;2022-08-01T11:10:09;97308.09;;;30.25;38.80
12759;BME280;20944;47.048;15.390;2022-08-01T11:12:41;97341.53;;;30.32;39.65
12759;BME280;20944;47.048;15.390;2022-08-01T11:15:22;97338.72;;;30.18;37.96
12759;BME280;20944;47.048;15.390;2022-08-01T11:18:01;97339.75;;;29.92;38.21
12759;BME280;20944;47.048;15.390;2022-08-01T11:20:34;97346.00;;;29.85;39.31
12759;BME280;20944;47.048;15.390;2022-08-01T11:23:17;97287.06;;;29.47;39.69
12759;BME280;20944;47.048;15.390;2022-08-01T11:26:16;97333.69;;;29.74;40.39
12759;BME280;20944;47.048;15.390;2022-08-01T11:29:13;97344.31;;;29.83;39.93
12759;BME280;20944;47.048;15.390;2022-08-01T11:31:49;97348.00;;;29.91;39.89
12759;BME280;20944;47.048;15.390;2022-08-01T11:34:19;97340.94;;;29.90;40.61
12759;BME280;20944;47.048;15.390;2022-08-01T11:36:49;97341.59;;;29.92;40.00
12759;BME280;20944;47.048;15.390;2022-08-01T11:39:25;97344.16;;;29.93;39.67
12759;BME280;20944;47.048;15.390;2022-08-01T11:42:17;97343.94;;;30.03;39.38
12759;BME280;20944;47.048;15.390;2022-08-01T11:44:50;97289.25;;;29.85;39.74
12759;BME280;20944;47.048;15.390;2022-08-01T11:47:46;97323.50;;;30.25;38.60
12759;BME280;20944;47.048;15.390;2022-08-01T11:50:32;97328.03;;;30.32;35.97
12759;BME280;20944;47.048;15.390;2022-08-01T11:53:04;97329.41;;;30.20;36.06
12759;BME280;20944;47.048;15.390;2022-08-01T11:55:33;97303.69;;;30.32;37.20
12759;BME280;20944;47.048;15.390;2022-08-01T11:58:04;97312.69;;;30.64;35.07
12759;BME280;20944;47.048;15.390;2022-08-01T12:00:50;97321.44;;;30.66;35.76
12759;BME280;20944;47.048;15.390;2022-08-01T12:03:25;97319.22;;;30.78;34.70
12759;BME280;20944;47.048;15.390;2022-08-01T12:05:59;97317.81;;;30.90;35.34
12759;BME280;20944;47.048;15.390;2022-08-01T12:08:29;97320.88;;;30.87;35.03
12759;BME280;20944;47.048;15.390;2022-08-01T12:11:00;97317.69;;;30.83;35.32
12759;BME280;20944;47.048;15.390;2022-08-01T12:13:40;97312.13;;;30.77;32.72
12759;BME280;20944;47.048;15.390;2022-08-01T12:16:10;97309.56;;;30.83;34.30
12759;BME280;20944;47.048;15.390;2022-08-01T12:18:41;97261.84;;;30.51;34.56
12759;BME280;20944;47.048;15.390;2022-08-01T12:21:10;97297.44;;;30.71;35.53
12759;BME280;20944;47.048;15.390;2022-08-01T12:23:38;97298.66;;;30.92;34.12
12759;BME280;20944;47.048;15.390;2022-08-01T12:26:06;97297.34;;;31.19;33.62
12759;BME280;20944;47.048;15.390;2022-08-01T12:28:55;97305.31;;;31.43;30.77
12759;BME280;20944;47.048;15.390;2022-08-01T12:31:31;97295.06;;;31.68;31.03
12759;BME280;20944;47.048;15.390;2022-08-01T12:34:27;97290.00;;;32.03;31.81
12759;BME280;20944;47.048;15.390;2022-08-01T12:36:59;97288.72;;;32.43;32.08
12759;BME280;20944;47.048;15.390;2022-08-01T12:39:31;97281.09;;;32.68;30.72
12759;BME280;20944;47.048;15.390;2022-08-01T12:42:00;97280.72;;;32.71;30.30
12759;BME280;20944;47.048;15.390;2022-08-01T12:44:30;97283.38;;;32.49;30.35
12759;BME280;20944;47.048;15.390;2022-08-01T12:46:58;97281.03;;;32.32;30.15
12759;BME280;20944;47.048;15.390;2022-08-01T12:49:29;97287.56;;;31.93;29.66
12759;BME280;20944;47.048;15.390;2022-08-01T12:51:58;97279.66;;;31.68;29.72
12759;BME280;20944;47.048;15.390;2022-08-01T12:54:26;97292.88;;;31.49;30.88
12759;BME280;20944;47.048;15.390;2022-08-01T12:56:55;97285.72;;;31.33;31.90
12759;BME280;20944;47.048;15.390;2022-08-01T12:59:25;97285.09;;;31.31;31.99
12759;BME280;20944;47.048;15.390;2022-08-01T13:01:55;97282.44;;;31.60;31.34
12759;BME280;20944;47.048;15.390;2022-08-01T13:04:25;97287.28;;;32.17;30.26
12759;BME280;20944;47.048;15.390;2022-08-01T13:06:55;97260.84;;;32.19;30.50
12759;BME280;20944;47.048;15.390;2022-08-01T13:09:24;97285.28;;;32.34;29.91
12759;BME280;20944;47.048;15.390;2022-08-01T13:11:53;97239.88;;;31.99;29.00
12759;BME280;20944;47.048;15.390;2022-08-01T13:14:32;97281.28;;;32.66;28.24
12759;BME280;20944;47.048;15.390;2022-08-01T13:17:07;97270.25;;;33.04;29.04